Airfield :
LOGIN :

Register | Disclaimer

   EN    FR    IT 

 










Legend :    VFR   Marginal VFR   IFR   Intensive IFR   Very Intensive IFR
Visi :
Ceiling :
>= 8 km
>= 3000ft
5 to 8 km
1000 to 3000 ft
1500m to 5 km
500 to 1000 ft
800 to 1500m
200 to 500 ft
< 800m
< 200 ft
Symbols :   Thunderstorms  Fog  Heavy snow  Heavy precipitations  Wind > 20 kt
SIGMETs :     Misc.  Thunderstorms  Icing  Turbulence  Mountain Waves  Volcanic Ashes






- Airport Elevation : 506 ft
- IATA code : GOT


ESGG - Landvetter

CURRENT METAR :
  • 050820Z 20011KT CAVOK 08/04 Q1029 R21/09//95

EXPIRED METARs :
  • 050750Z 19009KT 9999 SCT007 BKN078 07/04 Q1029 R21/09//95
  • 050720Z 17008KT 8000 BR FEW005 BKN080 06/05 Q1029 R21/09//95
  • 050650Z 17008KT 3500 BR SCT002 OVC082 05/04 Q1028 R21/09//95
  • 050620Z 19009KT 2100 BR VV003 04/04 Q1028 R21/09//95
  • 050550Z 18006KT 4400 BR BKN030 BKN084 04/04 Q1028 R21/09//95

TAF TAF ESGG
Valid from the 05 at 06:00 until the 06 at 06:00 UTC


050530Z 0506/0606 18008KT CAVOK
PROB40 0506/0508 2000 BR BKN003



MET'MAP, your aeronautical weather chart ! - Copyright ORBIFLY December 2007 - Disclaimer

ORBIFLY MET'MAP TEAM :

Programming & Development : Alexandra Zaïnal
Concept & original design : Baudouin d'Aumeries
Assistance for programming : Marc-Olivier Méhu
Technical & hardware support : Manuel Goepfert

Contact : metmap@orbifly.com




SOURCES & CREDITS :

   NOAA